createdAt,value
2023-05-04T00:01:37.041Z,15.10
2023-05-04T00:04:06.594Z,15.10
2023-05-04T00:06:35.238Z,15.10
2023-05-04T00:09:04.650Z,15.10
2023-05-04T00:11:35.273Z,15.00
2023-05-04T00:14:04.253Z,15.00
2023-05-04T00:16:32.666Z,15.00
2023-05-04T00:19:01.419Z,15.00
2023-05-04T00:21:29.908Z,14.90
2023-05-04T00:23:58.338Z,14.90
2023-05-04T00:26:26.938Z,14.90
2023-05-04T00:28:57.032Z,14.90
2023-05-04T00:31:25.923Z,14.90
2023-05-04T00:33:54.297Z,14.80
2023-05-04T00:36:22.780Z,14.80
2023-05-04T00:38:53.142Z,14.80
2023-05-04T00:41:23.074Z,14.70
2023-05-04T00:43:51.630Z,14.70
2023-05-04T00:46:22.416Z,14.80
2023-05-04T00:48:52.222Z,14.70
2023-05-04T00:51:24.161Z,14.70
2023-05-04T00:53:55.150Z,14.70
2023-05-04T00:56:25.006Z,14.70
2023-05-04T00:58:54.728Z,14.60
2023-05-04T01:01:24.740Z,14.60
2023-05-04T01:03:55.742Z,14.60
2023-05-04T01:06:33.353Z,14.60
2023-05-04T01:09:11.800Z,14.60
2023-05-04T01:11:45.618Z,14.60
2023-05-04T01:14:16.583Z,14.50
2023-05-04T01:16:47.280Z,14.50
2023-05-04T01:19:16.952Z,14.50
2023-05-04T01:21:47.878Z,14.50
2023-05-04T01:24:16.899Z,14.50
2023-05-04T01:26:48.499Z,14.50
2023-05-04T01:29:23.140Z,14.50
2023-05-04T01:31:52.233Z,14.50
2023-05-04T01:34:23.711Z,14.40
2023-05-04T01:36:54.220Z,14.40
2023-05-04T01:39:26.187Z,14.40
2023-05-04T01:41:56.203Z,14.40
2023-05-04T01:44:24.629Z,14.40
2023-05-04T01:46:53.025Z,14.40
2023-05-04T01:49:21.533Z,14.40
2023-05-04T01:51:53.180Z,14.40
2023-05-04T01:54:21.499Z,14.40
2023-05-04T01:56:50.153Z,14.40
2023-05-04T01:59:18.709Z,14.30
2023-05-04T02:01:47.261Z,14.30
2023-05-04T02:04:15.863Z,14.30
2023-05-04T02:06:44.392Z,14.30
2023-05-04T02:09:15.629Z,14.30
2023-05-04T02:11:44.372Z,14.30
2023-05-04T02:14:12.783Z,14.20
2023-05-04T02:16:41.651Z,14.20
2023-05-04T02:19:10.196Z,14.20
2023-05-04T02:21:38.682Z,14.20
2023-05-04T02:24:07.589Z,14.20
2023-05-04T02:26:37.449Z,14.20
2023-05-04T02:29:06.356Z,14.10
2023-05-04T02:31:35.404Z,14.10
2023-05-04T02:34:03.970Z,14.10
2023-05-04T02:36:32.584Z,14.10
2023-05-04T02:39:01.424Z,14.10
2023-05-04T02:41:29.902Z,14.10
2023-05-04T02:43:59.647Z,14.10
2023-05-04T02:46:28.345Z,14.00
2023-05-04T02:48:56.705Z,14.00
2023-05-04T02:51:25.172Z,14.00
2023-05-04T02:53:53.632Z,14.00
2023-05-04T02:56:22.123Z,14.00
2023-05-04T02:58:50.493Z,14.00
2023-05-04T03:01:20.515Z,14.00
2023-05-04T03:03:49.193Z,13.90
2023-05-04T03:06:17.618Z,13.90
2023-05-04T03:08:46.366Z,13.90
2023-05-04T03:11:15.154Z,13.90
2023-05-04T03:13:43.611Z,13.80
2023-05-04T03:16:12.968Z,13.80
2023-05-04T03:18:43.763Z,13.80
2023-05-04T03:21:12.601Z,13.80
2023-05-04T03:23:41.118Z,13.80
2023-05-04T03:26:09.618Z,13.70
2023-05-04T03:28:38.128Z,13.70
2023-05-04T03:31:06.817Z,13.70
2023-05-04T03:33:35.463Z,13.70
2023-05-04T03:36:06.689Z,13.70
2023-05-04T03:38:35.109Z,13.70
2023-05-04T03:41:04.947Z,13.70
2023-05-04T03:43:33.350Z,13.70
2023-05-04T03:46:02.281Z,13.70
2023-05-04T03:48:31.157Z,13.60
2023-05-04T03:50:59.966Z,13.60
2023-05-04T03:53:29.691Z,13.60
2023-05-04T03:55:58.050Z,13.60
2023-05-04T03:58:26.427Z,13.60
2023-05-04T04:00:55.252Z,13.60
2023-05-04T04:03:24.061Z,13.60
2023-05-04T04:05:52.492Z,13.60
2023-05-04T04:08:21.031Z,13.60
2023-05-04T04:10:51.713Z,13.60
2023-05-04T04:13:20.298Z,13.50
2023-05-04T04:15:50.362Z,13.50
2023-05-04T04:18:18.787Z,13.50
2023-05-04T04:20:47.278Z,13.50
2023-05-04T04:23:18.490Z,13.50
2023-05-04T04:25:46.983Z,13.50
2023-05-04T04:28:17.451Z,13.40
2023-05-04T04:30:46.362Z,13.40
2023-05-04T04:33:15.249Z,13.40
2023-05-04T04:35:43.748Z,13.40
2023-05-04T04:38:12.363Z,13.40
2023-05-04T04:40:40.783Z,13.30
2023-05-04T04:43:09.115Z,13.30
2023-05-04T04:45:41.244Z,13.30
2023-05-04T04:48:09.613Z,13.30
2023-05-04T04:50:40.709Z,13.30
2023-05-04T04:53:09.835Z,13.30
2023-05-04T04:55:38.295Z,13.30
2023-05-04T04:58:08.533Z,13.30
2023-05-04T05:00:38.711Z,13.30
2023-05-04T05:03:07.586Z,13.30
2023-05-04T05:05:36.284Z,13.30
2023-05-04T05:08:04.816Z,13.30
2023-05-04T05:10:33.869Z,13.30
2023-05-04T05:13:03.000Z,13.30
2023-05-04T05:15:31.777Z,13.30
2023-05-04T05:18:01.816Z,13.30
2023-05-04T05:20:30.427Z,13.30
2023-05-04T05:22:58.767Z,13.30
2023-05-04T05:25:27.991Z,13.30
2023-05-04T05:27:56.645Z,13.30
2023-05-04T05:30:25.466Z,13.30
2023-05-04T05:32:53.949Z,13.30
2023-05-04T05:35:24.217Z,13.30
2023-05-04T05:37:53.036Z,13.30
2023-05-04T05:40:22.403Z,13.30
2023-05-04T05:42:50.732Z,13.30
2023-05-04T05:45:19.466Z,13.30
2023-05-04T05:47:47.905Z,13.30
2023-05-04T05:50:19.419Z,13.30
2023-05-04T05:52:49.202Z,13.30
2023-05-04T05:55:17.963Z,13.30
2023-05-04T05:57:46.756Z,13.30
2023-05-04T06:00:17.340Z,13.40
2023-05-04T06:02:46.144Z,13.40
2023-05-04T06:05:15.544Z,13.50
2023-05-04T06:07:43.917Z,13.50
2023-05-04T06:10:15.256Z,13.50
2023-05-04T06:12:43.974Z,13.60
2023-05-04T06:15:14.372Z,13.70
2023-05-04T06:17:43.348Z,13.70
2023-05-04T06:20:12.994Z,13.70
2023-05-04T06:22:41.296Z,13.80
2023-05-04T06:25:11.529Z,13.90
2023-05-04T06:27:41.348Z,13.90
2023-05-04T06:30:11.178Z,14.00
2023-05-04T06:32:40.078Z,14.00
2023-05-04T06:35:10.588Z,14.10
2023-05-04T06:37:39.087Z,14.10
2023-05-04T06:40:09.566Z,14.20
2023-05-04T06:42:38.178Z,14.20
2023-05-04T06:45:09.876Z,14.30
2023-05-04T06:47:38.306Z,14.30
2023-05-04T06:50:11.820Z,14.40
2023-05-04T06:52:42.161Z,14.40
2023-05-04T06:55:10.932Z,14.40
2023-05-04T06:57:39.430Z,14.50
2023-05-04T07:00:11.433Z,14.50
2023-05-04T07:02:40.162Z,14.50
2023-05-04T07:05:09.704Z,14.50
2023-05-04T07:07:39.150Z,14.60
2023-05-04T07:10:10.178Z,14.60
2023-05-04T07:12:38.686Z,14.60
2023-05-04T07:15:10.553Z,14.70
2023-05-04T07:17:39.577Z,14.70
2023-05-04T07:20:09.711Z,14.80
2023-05-04T07:22:38.092Z,14.80
2023-05-04T07:25:07.156Z,14.80
2023-05-04T07:27:37.182Z,14.90
2023-05-04T07:30:11.298Z,15.00
2023-05-04T07:32:39.789Z,15.00
2023-05-04T07:35:09.421Z,15.10
2023-05-04T07:37:37.834Z,15.10
2023-05-04T07:40:08.398Z,15.20
2023-05-04T07:42:37.358Z,15.30
2023-05-04T07:45:08.410Z,15.40
2023-05-04T07:47:38.642Z,15.50
2023-05-04T07:50:08.763Z,15.50
2023-05-04T07:52:37.493Z,15.60
2023-05-04T07:55:07.090Z,15.70
2023-05-04T07:57:37.811Z,15.80
2023-05-04T08:00:08.892Z,15.90
2023-05-04T08:02:45.365Z,16.00
2023-05-04T08:05:13.977Z,16.10
2023-05-04T08:07:42.393Z,16.20
2023-05-04T08:10:11.685Z,16.30
2023-05-04T08:12:41.685Z,16.40
2023-05-04T08:15:11.415Z,16.50
2023-05-04T08:17:40.771Z,16.60
2023-05-04T08:20:13.002Z,16.70
2023-05-04T08:22:41.514Z,16.80
2023-05-04T08:25:11.200Z,16.90
2023-05-04T08:27:40.203Z,17.00
2023-05-04T08:30:10.404Z,17.10
2023-05-04T08:32:38.811Z,17.20
2023-05-04T08:35:08.104Z,17.30
2023-05-04T08:37:38.331Z,17.30
2023-05-04T08:40:08.512Z,17.40
2023-05-04T08:42:37.997Z,17.50
2023-05-04T08:45:08.133Z,17.60
2023-05-04T08:47:36.783Z,17.70
2023-05-04T08:50:07.611Z,17.80
2023-05-04T08:52:39.074Z,17.90
2023-05-04T08:55:08.798Z,17.90
2023-05-04T08:57:37.457Z,18.00
2023-05-04T09:00:09.118Z,18.10
2023-05-04T09:02:39.621Z,18.20
2023-05-04T09:05:09.426Z,18.30
2023-05-04T09:07:39.249Z,18.30
2023-05-04T09:10:09.549Z,18.40
2023-05-04T09:12:38.786Z,18.40
2023-05-04T09:15:18.127Z,18.50
2023-05-04T09:17:58.156Z,18.60
2023-05-04T09:20:27.084Z,18.70
2023-05-04T09:23:06.981Z,18.80
2023-05-04T09:25:35.730Z,18.80
2023-05-04T09:28:04.258Z,18.90
2023-05-04T09:30:33.034Z,19.00
2023-05-04T09:33:03.276Z,19.00
2023-05-04T09:35:33.690Z,19.10
2023-05-04T09:38:05.101Z,19.20
2023-05-04T09:40:37.787Z,19.20
2023-05-04T09:43:06.703Z,19.30
2023-05-04T09:45:42.767Z,19.40
2023-05-04T09:48:20.154Z,19.50
2023-05-04T09:50:54.789Z,19.50
2023-05-04T09:53:26.692Z,19.60
2023-05-04T09:56:08.124Z,19.70
2023-05-04T09:58:38.158Z,19.80
2023-05-04T10:01:08.306Z,19.90
2023-05-04T10:03:37.817Z,19.90
2023-05-04T10:06:08.961Z,20.00
2023-05-04T10:08:40.232Z,20.10
2023-05-04T10:11:09.706Z,20.20
2023-05-04T10:13:38.076Z,20.30
2023-05-04T10:16:32.959Z,20.30
2023-05-04T10:19:31.202Z,20.40
2023-05-04T10:22:22.829Z,20.50
2023-05-04T10:25:30.903Z,20.60
2023-05-04T10:28:08.452Z,20.70
2023-05-04T10:30:39.964Z,20.70
2023-05-04T10:33:08.889Z,20.80
2023-05-04T10:35:37.864Z,20.80
2023-05-04T10:38:06.430Z,20.90
2023-05-04T10:40:42.054Z,20.90
2023-05-04T10:43:11.619Z,21.00
2023-05-04T10:45:41.724Z,21.10
2023-05-04T10:48:11.060Z,21.10
2023-05-04T10:50:47.643Z,21.20
2023-05-04T10:53:18.485Z,21.20
2023-05-04T10:55:49.871Z,21.30
2023-05-04T10:58:29.195Z,21.30
2023-05-04T11:00:57.783Z,21.40
2023-05-04T11:03:26.917Z,21.40
2023-05-04T11:05:55.690Z,21.50
2023-05-04T11:08:25.946Z,21.50
2023-05-04T11:11:05.163Z,21.50
2023-05-04T11:13:36.494Z,21.60
2023-05-04T11:16:05.122Z,21.70
2023-05-04T11:18:37.437Z,21.70
2023-05-04T11:21:06.445Z,21.80
2023-05-04T11:23:35.103Z,21.80
2023-05-04T11:26:09.432Z,21.90
2023-05-04T11:28:39.850Z,21.90
2023-05-04T11:31:14.787Z,22.00
2023-05-04T11:33:48.314Z,22.00
2023-05-04T11:36:19.234Z,22.10
2023-05-04T11:38:48.076Z,22.10
2023-05-04T11:41:18.685Z,22.10
2023-05-04T11:43:48.181Z,22.20
2023-05-04T11:46:18.073Z,22.20
2023-05-04T11:48:47.896Z,22.30
2023-05-04T11:51:16.246Z,22.30
2023-05-04T11:53:44.692Z,22.40
2023-05-04T11:56:13.182Z,22.40
2023-05-04T11:58:43.105Z,22.50
2023-05-04T12:01:11.584Z,22.50
2023-05-04T12:03:51.966Z,22.60
2023-05-04T12:06:33.873Z,22.60
2023-05-04T12:09:07.245Z,22.60
2023-05-04T12:11:38.273Z,22.70
2023-05-04T12:14:11.147Z,22.70
2023-05-04T12:16:42.773Z,22.80
2023-05-04T12:19:13.484Z,22.80
2023-05-04T12:21:53.077Z,22.90
2023-05-04T12:24:24.797Z,22.90
2023-05-04T12:26:53.560Z,23.00
2023-05-04T12:29:23.422Z,23.10
2023-05-04T12:31:52.076Z,23.10
2023-05-04T12:34:20.433Z,23.10
2023-05-04T12:36:51.919Z,23.20
2023-05-04T12:39:21.062Z,23.30
2023-05-04T12:41:49.405Z,23.30
2023-05-04T12:44:18.845Z,23.30
2023-05-04T12:46:48.735Z,23.40
2023-05-04T12:49:17.146Z,23.40
2023-05-04T12:51:45.773Z,23.50
2023-05-04T12:54:14.401Z,23.50
2023-05-04T12:56:42.870Z,23.50
2023-05-04T12:59:11.842Z,23.60
2023-05-04T13:01:41.950Z,23.70
2023-05-04T13:04:11.752Z,23.70
2023-05-04T13:06:40.278Z,23.80
2023-05-04T13:09:08.888Z,23.80
2023-05-04T13:11:37.946Z,23.90
2023-05-04T13:14:07.281Z,23.90
2023-05-04T13:16:35.765Z,24.00
2023-05-04T13:19:04.894Z,24.00
2023-05-04T13:21:34.702Z,24.10
2023-05-04T13:24:03.316Z,24.10
2023-05-04T13:26:32.213Z,24.10
2023-05-04T13:29:01.094Z,24.10
2023-05-04T13:31:29.536Z,24.20
2023-05-04T13:33:58.036Z,24.20
2023-05-04T13:36:26.775Z,24.20
2023-05-04T13:38:56.889Z,24.30
2023-05-04T13:41:25.395Z,24.30
2023-05-04T13:43:54.148Z,24.30
2023-05-04T13:46:23.126Z,24.30
2023-05-04T13:48:52.256Z,24.30
2023-05-04T13:51:21.002Z,24.40
2023-05-04T13:53:49.427Z,24.40
2023-05-04T13:56:19.206Z,24.40
2023-05-04T13:58:47.653Z,24.40
2023-05-04T14:01:16.160Z,24.50
2023-05-04T14:03:44.651Z,24.50
2023-05-04T14:06:13.049Z,24.50
2023-05-04T14:08:41.406Z,24.50
2023-05-04T14:11:09.815Z,24.60
2023-05-04T14:13:39.856Z,24.60
2023-05-04T14:16:08.504Z,24.60
2023-05-04T14:18:36.976Z,24.60
2023-05-04T14:21:05.679Z,24.60
2023-05-04T14:23:34.297Z,24.70
2023-05-04T14:26:03.257Z,24.70
2023-05-04T14:28:32.224Z,24.70
2023-05-04T14:31:08.775Z,24.70
2023-05-04T14:33:37.481Z,24.70
2023-05-04T14:36:06.642Z,24.70
2023-05-04T14:38:36.080Z,24.80
2023-05-04T14:41:05.425Z,24.70
2023-05-04T14:43:36.626Z,24.70
2023-05-04T14:46:09.278Z,24.80
2023-05-04T14:48:37.825Z,24.80
2023-05-04T14:51:06.401Z,24.80
2023-05-04T14:53:37.259Z,24.70
2023-05-04T14:56:07.790Z,24.70
2023-05-04T14:58:36.417Z,24.70
2023-05-04T15:01:06.688Z,24.60
2023-05-04T15:03:35.491Z,24.70
2023-05-04T15:06:03.975Z,24.70
2023-05-04T15:08:32.459Z,24.70
2023-05-04T15:11:01.066Z,24.70
2023-05-04T15:13:29.459Z,24.70
2023-05-04T15:15:58.260Z,24.70
2023-05-04T15:18:28.858Z,24.60
2023-05-04T15:20:57.395Z,24.60
2023-05-04T15:23:25.724Z,24.60
2023-05-04T15:25:54.156Z,24.60
2023-05-04T15:28:23.027Z,24.60
2023-05-04T15:30:51.428Z,24.50
2023-05-04T15:33:19.765Z,24.60
2023-05-04T15:35:49.959Z,24.50
2023-05-04T15:38:18.917Z,24.50
2023-05-04T15:40:47.325Z,24.50
2023-05-04T15:43:16.222Z,24.50
2023-05-04T15:45:44.729Z,24.60
2023-05-04T15:48:13.126Z,24.50
2023-05-04T15:50:41.532Z,24.50
2023-05-04T15:53:11.341Z,24.50
2023-05-04T15:55:40.365Z,24.50
2023-05-04T15:58:09.003Z,24.50
2023-05-04T16:00:37.702Z,24.40
2023-05-04T16:03:06.703Z,24.40
2023-05-04T16:05:35.198Z,24.40
2023-05-04T16:08:03.634Z,24.40
2023-05-04T16:10:33.460Z,24.40
2023-05-04T16:13:04.362Z,24.30
2023-05-04T16:15:32.896Z,24.40
2023-05-04T16:18:01.555Z,24.30
2023-05-04T16:20:30.629Z,24.30
2023-05-04T16:22:59.020Z,24.30
2023-05-04T16:25:27.431Z,24.30
2023-05-04T16:27:57.692Z,24.30
2023-05-04T16:30:32.177Z,24.30
2023-05-04T16:33:00.893Z,24.30
2023-05-04T16:35:31.703Z,24.30
2023-05-04T16:38:00.530Z,24.30
2023-05-04T16:40:29.306Z,24.30
2023-05-04T16:42:59.270Z,24.30
2023-05-04T16:45:31.822Z,24.30
2023-05-04T16:48:00.990Z,24.30
2023-05-04T16:50:29.840Z,24.30
2023-05-04T16:52:58.283Z,24.30
2023-05-04T16:55:27.561Z,24.30
2023-05-04T16:57:59.478Z,24.30
2023-05-04T17:00:29.146Z,24.30
2023-05-04T17:02:57.683Z,24.30
2023-05-04T17:05:26.537Z,24.30
2023-05-04T17:07:54.839Z,24.30
2023-05-04T17:10:24.699Z,24.30
2023-05-04T17:12:54.952Z,24.30
2023-05-04T17:15:25.016Z,24.30
2023-05-04T17:17:55.601Z,24.30
2023-05-04T17:20:28.671Z,24.30
2023-05-04T17:22:58.533Z,24.30
2023-05-04T17:25:27.754Z,24.30
2023-05-04T17:27:56.500Z,24.20
2023-05-04T17:30:27.013Z,24.20
2023-05-04T17:32:57.419Z,24.20
2023-05-04T17:35:26.772Z,24.20
2023-05-04T17:37:57.918Z,24.20
2023-05-04T17:40:28.768Z,24.20
2023-05-04T17:42:57.358Z,24.10
2023-05-04T17:45:27.178Z,24.10
2023-05-04T17:47:57.214Z,24.10
2023-05-04T17:50:26.774Z,24.10
2023-05-04T17:52:56.689Z,24.00
2023-05-04T17:55:25.791Z,24.00
2023-05-04T17:57:55.090Z,23.90
2023-05-04T18:00:24.218Z,23.90
2023-05-04T18:02:54.534Z,23.90
2023-05-04T18:05:23.012Z,23.80
2023-05-04T18:07:51.722Z,23.80
2023-05-04T18:10:20.472Z,23.80
2023-05-04T18:12:48.924Z,23.80
2023-05-04T18:15:18.472Z,23.70
2023-05-04T18:17:48.567Z,23.70
2023-05-04T18:20:18.365Z,23.60
2023-05-04T18:22:46.780Z,23.70
2023-05-04T18:25:15.330Z,23.60
2023-05-04T18:27:44.467Z,23.60
2023-05-04T18:30:13.477Z,23.50
2023-05-04T18:32:42.234Z,23.50
2023-05-04T18:35:11.670Z,23.50
2023-05-04T18:37:41.710Z,23.40
2023-05-04T18:40:11.518Z,23.40
2023-05-04T18:42:40.475Z,23.40
2023-05-04T18:45:11.450Z,23.30
2023-05-04T18:47:39.854Z,23.30
2023-05-04T18:50:10.517Z,23.20
2023-05-04T18:52:39.008Z,23.20
2023-05-04T18:55:10.514Z,23.20
2023-05-04T18:57:38.881Z,23.10
2023-05-04T19:00:09.638Z,23.10
2023-05-04T19:02:38.793Z,23.10
2023-05-04T19:05:07.974Z,23.00
2023-05-04T19:07:37.009Z,23.00
2023-05-04T19:10:06.588Z,23.00
2023-05-04T19:12:36.964Z,23.00
2023-05-04T19:15:06.892Z,22.90
2023-05-04T19:17:35.374Z,22.90
2023-05-04T19:20:04.385Z,22.90
2023-05-04T19:22:32.758Z,22.80
2023-05-04T19:25:01.194Z,22.80
2023-05-04T19:27:29.880Z,22.80
2023-05-04T19:29:59.658Z,22.80
2023-05-04T19:32:28.488Z,22.80
2023-05-04T19:34:57.004Z,22.70
2023-05-04T19:37:25.732Z,22.70
2023-05-04T19:39:54.706Z,22.70
2023-05-04T19:42:23.091Z,22.70
2023-05-04T19:44:51.883Z,22.60
2023-05-04T19:47:21.964Z,22.60
2023-05-04T19:49:50.292Z,22.60
2023-05-04T19:52:18.783Z,22.60
2023-05-04T19:54:48.615Z,22.60
2023-05-04T19:57:17.091Z,22.50
2023-05-04T19:59:47.008Z,22.50
2023-05-04T20:02:16.194Z,22.50
2023-05-04T20:04:46.338Z,22.40
2023-05-04T20:07:14.781Z,22.40
2023-05-04T20:09:43.437Z,22.40
2023-05-04T20:12:12.225Z,22.30
2023-05-04T20:14:41.224Z,22.30
2023-05-04T20:17:09.843Z,22.30
2023-05-04T20:19:40.778Z,22.30
2023-05-04T20:22:11.079Z,22.30
2023-05-04T20:24:39.581Z,22.20
2023-05-04T20:27:08.241Z,22.20
2023-05-04T20:29:37.016Z,22.10
2023-05-04T20:32:07.258Z,22.10
2023-05-04T20:34:36.301Z,22.10
2023-05-04T20:37:04.651Z,22.10
2023-05-04T20:39:34.439Z,22.00
2023-05-04T20:42:03.997Z,22.00
2023-05-04T20:44:32.763Z,22.00
2023-05-04T20:47:01.256Z,21.90
2023-05-04T20:49:29.557Z,21.90
2023-05-04T20:51:58.368Z,21.80
2023-05-04T20:54:26.789Z,21.80
2023-05-04T20:56:56.550Z,21.80
2023-05-04T20:59:24.916Z,21.80
2023-05-04T21:01:53.304Z,21.80
2023-05-04T21:04:21.905Z,21.80
2023-05-04T21:06:50.534Z,21.70
2023-05-04T21:09:19.202Z,21.70
2023-05-04T21:11:47.714Z,21.70
2023-05-04T21:14:17.775Z,21.60
2023-05-04T21:16:46.065Z,21.60
2023-05-04T21:19:14.497Z,21.60
2023-05-04T21:21:42.818Z,21.60
2023-05-04T21:24:15.204Z,21.50
2023-05-04T21:26:44.997Z,21.50
2023-05-04T21:29:14.030Z,21.50
2023-05-04T21:31:44.193Z,21.50
2023-05-04T21:34:12.625Z,21.40
2023-05-04T21:36:44.349Z,21.40
2023-05-04T21:39:12.785Z,21.40
2023-05-04T21:41:41.499Z,21.40
2023-05-04T21:44:09.866Z,21.40
2023-05-04T21:46:38.352Z,21.40
2023-05-04T21:49:08.416Z,21.30
2023-05-04T21:51:36.944Z,21.30
2023-05-04T21:54:05.371Z,21.30
2023-05-04T21:56:34.135Z,21.30
2023-05-04T21:59:03.136Z,21.30
2023-05-04T22:01:31.520Z,21.20
2023-05-04T22:04:00.258Z,21.20
2023-05-04T22:06:30.170Z,21.20
2023-05-04T22:08:58.814Z,21.20
2023-05-04T22:11:27.410Z,21.20
2023-05-04T22:13:56.268Z,21.20
2023-05-04T22:16:25.314Z,21.10
2023-05-04T22:18:53.940Z,21.10
2023-05-04T22:21:22.435Z,21.10
2023-05-04T22:23:52.286Z,21.10
2023-05-04T22:26:20.826Z,21.10
2023-05-04T22:28:49.175Z,21.10
2023-05-04T22:31:17.540Z,21.10
2023-05-04T22:33:46.739Z,21.10
2023-05-04T22:36:15.448Z,21.10
2023-05-04T22:38:43.913Z,21.10
2023-05-04T22:41:14.699Z,21.00
2023-05-04T22:43:43.069Z,21.00
2023-05-04T22:46:17.200Z,21.00
2023-05-04T22:48:47.413Z,21.00
2023-05-04T22:51:16.022Z,21.00
2023-05-04T22:53:44.931Z,21.00
2023-05-04T22:56:14.944Z,21.00
2023-05-04T22:58:43.591Z,21.00
2023-05-04T23:01:12.102Z,21.00
2023-05-04T23:03:41.022Z,21.00
2023-05-04T23:06:09.749Z,21.00
2023-05-04T23:08:38.710Z,21.00
2023-05-04T23:11:07.226Z,21.00
2023-05-04T23:13:37.593Z,20.90
2023-05-04T23:16:07.676Z,21.00
2023-05-04T23:18:36.524Z,21.00
2023-05-04T23:21:05.449Z,21.00
2023-05-04T23:23:34.681Z,21.00
2023-05-04T23:26:03.176Z,20.90
2023-05-04T23:28:31.526Z,20.90
2023-05-04T23:31:02.483Z,21.00
2023-05-04T23:33:30.958Z,21.00
2023-05-04T23:35:59.462Z,21.00
2023-05-04T23:38:27.946Z,21.00
2023-05-04T23:40:56.960Z,21.00
2023-05-04T23:43:25.747Z,20.90
2023-05-04T23:46:02.201Z,21.00
2023-05-04T23:48:31.877Z,21.00
2023-05-04T23:51:03.838Z,21.00
2023-05-04T23:53:33.661Z,21.00
2023-05-04T23:56:04.318Z,20.90
2023-05-04T23:58:34.078Z,21.00
